Time;durP1;ratioP1;P1;durP2;ratioP2;P2;SDS_P1;SDS_P2;PMS_P1;PMS_P2;Temp;Humidity;BMP_temperature;BMP_pressure;BME280_temperature;BME280_humidity;BME280_pressure;Samples;Min_cycle;Max_cycle;Signal;HPM_P1;HPM_P2
2023/09/23 00:08:24;;;;;;;7.15;5.30;;;12.60;99.90;;;;;;20512844;28;20101;-42
2023/09/23 00:18:24;;;;;;;5.25;3.95;;;12.70;99.90;;;;;;20514563;28;20058;-43
2023/09/23 00:28:30;;;;;;;4.82;3.47;;;12.70;99.90;;;;;;20507163;28;20041;-45
2023/09/23 00:38:32;;;;;;;4.40;2.63;;;12.50;99.90;;;;;;20514351;28;20546;-47
2023/09/23 00:48:39;;;;;;;6.05;2.80;;;12.30;99.90;;;;;;20525456;28;20043;-44
2023/09/23 00:58:42;;;;;;;;;;;12.20;99.90;;;;;;20525566;28;20072;-44
2023/09/23 01:08:44;;;;;;;7.85;4.28;;;12.30;99.90;;;;;;20532782;28;19924;-43
2023/09/23 01:18:45;;;;;;;15.38;11.10;;;12.30;99.90;;;;;;20524845;28;20458;-42
2023/09/23 01:28:48;;;;;;;19.73;14.82;;;12.30;99.90;;;;;;20523672;28;20136;-42
2023/09/23 01:38:48;;;;;;;27.13;17.70;;;12.40;99.90;;;;;;20524320;28;20053;-42
2023/09/23 01:48:49;;;;;;;25.10;17.83;;;12.30;99.90;;;;;;20527138;28;20035;-42
2023/09/23 01:58:49;;;;;;;26.95;19.13;;;12.30;99.90;;;;;;20518811;28;20177;-42
2023/09/23 02:08:50;;;;;;;28.73;19.95;;;12.40;99.90;;;;;;20524973;28;20509;-42
2023/09/23 02:18:51;;;;;;;27.77;19.45;;;12.60;99.90;;;;;;20524044;28;20391;-42
2023/09/23 02:28:51;;;;;;;27.25;19.15;;;12.40;99.90;;;;;;20527130;28;20063;-42
2023/09/23 02:38:52;;;;;;;26.88;18.25;;;12.50;99.90;;;;;;20520216;28;20042;-42
2023/09/23 02:48:53;;;;;;;26.40;17.95;;;12.50;99.90;;;;;;20516779;28;20034;-42
2023/09/23 02:58:56;;;;;;;25.25;17.15;;;12.60;99.90;;;;;;20523346;28;20050;-41
2023/09/23 03:08:58;;;;;;;25.60;18.17;;;12.50;99.90;;;;;;20516748;28;20440;-42
2023/09/23 03:19:10;;;;;;;21.88;15.55;;;12.50;99.90;;;;;;20531058;28;20472;-42
2023/09/23 03:29:12;;;;;;;19.85;14.90;;;12.60;99.90;;;;;;20540379;28;20440;-42
2023/09/23 03:39:13;;;;;;;19.50;13.85;;;12.60;99.90;;;;;;20527294;28;20079;-42
2023/09/23 03:49:13;;;;;;;20.60;14.20;;;12.50;99.90;;;;;;20529494;28;20588;-42
2023/09/23 03:59:14;;;;;;;18.63;12.97;;;12.30;99.90;;;;;;20533332;28;20139;-42
2023/09/23 04:09:14;;;;;;;21.27;13.18;;;12.40;99.90;;;;;;20515550;28;20463;-42
2023/09/23 04:19:15;;;;;;;18.02;13.30;;;12.50;99.90;;;;;;20506314;28;20046;-42
2023/09/23 04:29:19;;;;;;;20.13;12.73;;;12.50;99.90;;;;;;20505480;28;20495;-43
2023/09/23 04:39:20;;;;;;;18.42;11.00;;;12.60;99.90;;;;;;20515150;28;21175;-42
2023/09/23 04:49:21;;;;;;;15.60;11.00;;;12.60;99.90;;;;;;20522584;28;20043;-43
2023/09/23 04:59:21;;;;;;;17.83;12.15;;;12.60;99.90;;;;;;20514871;28;20149;-42
2023/09/23 05:09:25;;;;;;;15.63;10.23;;;12.60;99.90;;;;;;20513538;28;20051;-42
2023/09/23 05:19:27;;;;;;;16.65;11.93;;;12.50;99.90;;;;;;20516911;28;20039;-42
2023/09/23 05:29:28;;;;;;;17.88;10.20;;;12.60;99.90;;;;;;20521117;28;20244;-42
2023/09/23 05:39:28;;;;;;;16.80;9.93;;;12.50;99.90;;;;;;20552387;28;20050;-41
2023/09/23 05:49:30;;;;;;;12.85;9.52;;;12.50;99.90;;;;;;20563323;28;20035;-42
2023/09/23 05:59:31;;;;;;;10.57;7.93;;;12.60;99.90;;;;;;20547054;28;20042;-42
2023/09/23 06:09:32;;;;;;;12.55;7.95;;;12.50;99.90;;;;;;20521704;28;20072;-42
2023/09/23 06:19:33;;;;;;;12.55;7.90;;;12.40;99.90;;;;;;20545859;28;20051;-41
2023/09/23 06:29:34;;;;;;;13.75;7.93;;;12.50;99.90;;;;;;20522195;28;20852;-42
2023/09/23 06:39:34;;;;;;;13.13;7.13;;;12.50;99.90;;;;;;20549809;28;20146;-42
2023/09/23 06:49:35;;;;;;;13.02;7.65;;;12.70;99.90;;;;;;20549430;28;20038;-42
2023/09/23 06:59:35;;;;;;;13.02;6.78;;;12.80;99.90;;;;;;20545436;28;20129;-43
2023/09/23 07:09:36;;;;;;;9.75;6.47;;;13.10;99.90;;;;;;20531960;28;20797;-42
2023/09/23 07:19:36;;;;;;;9.65;6.00;;;13.20;99.90;;;;;;20538625;28;20042;-42
2023/09/23 07:29:37;;;;;;;8.73;5.27;;;13.30;99.90;;;;;;20538085;28;20069;-42
2023/09/23 07:39:39;;;;;;;12.68;5.95;;;13.40;99.90;;;;;;20515941;28;20072;-42
2023/09/23 07:49:39;;;;;;;14.38;5.40;;;13.70;99.90;;;;;;20511767;28;20121;-43
2023/09/23 07:59:41;;;;;;;9.07;5.30;;;14.10;99.90;;;;;;20528252;28;20121;-42
2023/09/23 08:09:42;;;;;;;7.57;4.88;;;14.20;99.90;;;;;;20521300;28;20511;-42
2023/09/23 08:19:44;;;;;;;8.75;4.32;;;14.50;99.90;;;;;;20518981;28;20104;-43
2023/09/23 08:29:44;;;;;;;7.68;3.85;;;14.60;99.90;;;;;;20521298;28;20039;-42
2023/09/23 08:39:45;;;;;;;8.52;4.10;;;14.60;99.90;;;;;;20523031;28;20063;-43
2023/09/23 08:49:48;;;;;;;6.68;3.83;;;14.70;99.90;;;;;;20522779;28;20034;-45
2023/09/23 08:59:48;;;;;;;9.98;3.90;;;15.10;99.90;;;;;;20540770;28;20078;-42
2023/09/23 09:09:49;;;;;;;7.38;3.17;;;15.10;99.90;;;;;;20557226;28;20038;-42
2023/09/23 09:19:50;;;;;;;6.55;3.40;;;14.80;99.90;;;;;;20558221;28;20092;-42
2023/09/23 09:29:50;;;;;;;5.10;3.00;;;14.80;99.90;;;;;;20528135;28;20043;-42
2023/09/23 09:39:58;;;;;;;7.90;3.80;;;14.80;99.90;;;;;;20541797;28;20100;-43
2023/09/23 09:49:59;;;;;;;5.30;2.95;;;14.80;99.90;;;;;;20555633;28;20118;-43
2023/09/23 10:00:15;;;;;;;7.65;3.17;;;14.70;99.90;;;;;;20572496;28;20066;-43
2023/09/23 10:10:16;;;;;;;9.45;3.20;;;14.70;99.90;;;;;;20579305;28;20050;-41
2023/09/23 10:20:18;;;;;;;7.85;2.60;;;15.10;99.90;;;;;;20581089;28;20105;-42
2023/09/23 10:30:26;;;;;;;4.22;1.25;;;15.50;99.90;;;;;;20582030;28;20062;-42
2023/09/23 10:40:26;;;;;;;0.77;0.40;;;16.00;99.90;;;;;;20575244;28;20101;-42
2023/09/23 10:50:27;;;;;;;2.88;0.50;;;16.50;13.90;;;;;;20575643;28;20048;-42
2023/09/23 11:00:33;;;;;;;3.83;0.70;;;16.80;1.00;;;;;;20577966;28;20627;-43
2023/09/23 11:10:34;;;;;;;2.30;0.80;;;16.60;1.00;;;;;;20575165;28;20148;-42
2023/09/23 11:20:37;;;;;;;4.97;0.80;;;16.70;1.00;;;;;;20581811;28;20050;-41
2023/09/23 11:30:38;;;;;;;5.07;1.30;;;16.70;1.00;;;;;;20574198;28;20502;-41
2023/09/23 11:40:39;;;;;;;3.75;1.02;;;16.60;1.00;;;;;;20573712;28;20046;-41
2023/09/23 11:50:39;;;;;;;2.78;0.63;;;17.10;1.00;;;;;;20576893;28;20411;-41
2023/09/23 12:00:41;;;;;;;4.10;0.70;;;17.60;1.00;;;;;;20569455;28;20066;-41
2023/09/23 12:10:41;;;;;;;2.10;0.60;;;17.70;1.00;;;;;;20571733;28;20156;-42
2023/09/23 12:20:42;;;;;;;1.67;0.40;;;17.70;1.00;;;;;;20568748;28;20083;-41
2023/09/23 12:30:42;;;;;;;3.20;0.60;;;17.80;1.00;;;;;;20572480;28;20459;-41
2023/09/23 12:40:44;;;;;;;3.03;0.80;;;18.10;1.00;;;;;;20576822;28;20415;-41
2023/09/23 12:50:45;;;;;;;2.33;0.70;;;17.60;1.00;;;;;;20591547;28;20097;-41
2023/09/23 13:00:45;;;;;;;2.83;0.70;;;17.30;1.00;;;;;;20584569;28;20291;-41
2023/09/23 13:10:46;;;;;;;3.80;1.00;;;16.60;25.50;;;;;;20585957;28;20054;-41
2023/09/23 13:20:47;;;;;;;3.33;0.70;;;16.70;94.80;;;;;;20579030;28;20559;-41
2023/09/23 13:30:48;;;;;;;4.07;0.50;;;17.60;5.60;;;;;;20580727;28;20030;-41
2023/09/23 13:40:49;;;;;;;1.40;0.40;;;17.20;1.00;;;;;;20582326;28;20046;-42
2023/09/23 13:50:49;;;;;;;2.17;0.45;;;17.00;1.00;;;;;;20582273;28;20053;-42
2023/09/23 14:00:50;;;;;;;1.65;0.43;;;16.90;1.00;;;;;;20580465;28;20054;-41
2023/09/23 14:10:50;;;;;;;4.40;0.80;;;16.70;1.00;;;;;;20528674;28;20458;-41
2023/09/23 14:20:51;;;;;;;4.28;0.50;;;16.70;1.00;;;;;;20539738;28;20368;-41
2023/09/23 14:30:52;;;;;;;1.70;0.32;;;16.60;1.00;;;;;;20529574;28;20081;-41
2023/09/23 14:40:53;;;;;;;2.22;0.50;;;16.60;1.00;;;;;;20523822;28;20125;-41
2023/09/23 14:50:53;;;;;;;4.20;0.60;;;16.50;1.00;;;;;;20536749;28;20104;-42
2023/09/23 15:00:54;;;;;;;0.90;0.40;;;16.60;2.40;;;;;;20521020;28;20054;-42
2023/09/23 15:10:55;;;;;;;2.65;0.40;;;16.90;1.00;;;;;;20529563;28;20720;-41
2023/09/23 15:20:56;;;;;;;3.05;0.47;;;17.00;1.00;;;;;;20528885;28;20454;-42
2023/09/23 15:30:57;;;;;;;1.38;0.30;;;17.00;1.00;;;;;;20521302;28;20057;-42
2023/09/23 15:40:58;;;;;;;0.77;0.20;;;17.10;1.00;;;;;;20525783;28;20050;-42
2023/09/23 15:51:19;;;;;;;1.65;0.60;;;17.10;1.00;;;;;;20520192;28;20043;-42
2023/09/23 16:01:20;;;;;;;1.33;0.40;;;16.80;1.00;;;;;;20524952;28;20488;-43
2023/09/23 16:11:20;;;;;;;4.35;0.70;;;16.70;1.00;;;;;;20539385;28;20046;-42
2023/09/23 16:21:21;;;;;;;4.15;0.80;;;16.70;1.00;;;;;;20569758;28;20598;-42
2023/09/23 16:31:22;;;;;;;2.13;0.60;;;16.70;1.00;;;;;;20572300;28;20097;-42
2023/09/23 16:41:23;;;;;;;1.92;0.70;;;16.30;1.00;;;;;;20558245;28;20788;-42
2023/09/23 16:51:24;;;;;;;2.92;0.90;;;16.00;1.00;;;;;;20529428;28;20443;-42
2023/09/23 17:01:24;;;;;;;2.35;0.65;;;15.80;1.00;;;;;;20531627;28;20396;-42
2023/09/23 17:11:25;;;;;;;1.80;0.68;;;15.70;1.00;;;;;;20513025;28;20039;-42
2023/09/23 17:21:27;;;;;;;3.58;1.08;;;15.70;1.00;;;;;;20521493;28;20066;-42
2023/09/23 17:31:28;;;;;;;5.70;1.35;;;15.50;1.00;;;;;;20529291;28;20070;-42
2023/09/23 17:41:30;;;;;;;3.22;0.95;;;15.40;1.30;;;;;;20542032;28;20415;-42
2023/09/23 17:51:30;;;;;;;3.60;1.15;;;15.20;21.10;;;;;;20531894;28;20038;-42
2023/09/23 18:01:31;;;;;;;4.00;0.90;;;15.30;27.20;;;;;;20540589;28;20126;-42
2023/09/23 18:11:32;;;;;;;3.05;0.90;;;15.30;14.60;;;;;;20496032;28;20034;-41
2023/09/23 18:21:32;;;;;;;2.87;1.13;;;15.20;17.40;;;;;;20515703;28;20529;-42
2023/09/23 18:31:33;;;;;;;2.85;1.17;;;15.10;25.20;;;;;;20528478;28;20525;-42
2023/09/23 18:41:34;;;;;;;2.40;0.88;;;15.00;15.30;;;;;;20520020;28;20046;-42
2023/09/23 18:51:36;;;;;;;2.00;0.85;;;14.80;23.30;;;;;;20520405;28;20145;-42
2023/09/23 19:01:36;;;;;;;2.20;0.90;;;14.60;35.40;;;;;;20525244;28;20041;-42
2023/09/23 19:11:37;;;;;;;2.40;1.17;;;14.40;59.50;;;;;;20528103;28;20161;-42
2023/09/23 19:21:38;;;;;;;5.03;1.63;;;14.40;86.50;;;;;;20528085;28;20046;-42
2023/09/23 19:31:39;;;;;;;5.23;1.60;;;14.40;88.90;;;;;;20523414;28;20462;-42
2023/09/23 19:41:40;;;;;;;3.90;2.20;;;14.20;89.80;;;;;;20547033;28;20069;-42
2023/09/23 19:51:40;;;;;;;4.93;2.55;;;14.30;89.40;;;;;;20539533;28;20533;-42
2023/09/23 20:01:41;;;;;;;4.50;2.50;;;14.50;76.90;;;;;;20540384;28;20106;-42
2023/09/23 20:11:42;;;;;;;7.78;2.63;;;14.40;92.30;;;;;;20543587;28;20511;-42
2023/09/23 20:21:43;;;;;;;4.10;2.50;;;14.30;99.90;;;;;;20527239;28;20698;-42
2023/09/23 20:31:44;;;;;;;6.22;2.67;;;14.30;99.90;;;;;;20518125;28;21092;-42
2023/09/23 20:41:45;;;;;;;3.65;2.30;;;14.10;99.90;;;;;;20535576;28;20047;-42
2023/09/23 20:51:46;;;;;;;5.40;3.05;;;13.90;99.90;;;;;;20534819;28;20073;-42
2023/09/23 21:01:46;;;;;;;5.88;3.50;;;13.70;99.90;;;;;;20524936;28;20117;-42
2023/09/23 21:11:47;;;;;;;5.78;3.13;;;13.60;99.90;;;;;;20544974;28;20034;-42
2023/09/23 21:21:50;;;;;;;6.90;4.00;;;13.50;99.90;;;;;;20531147;28;20497;-42
2023/09/23 21:31:51;;;;;;;7.10;4.00;;;13.30;99.90;;;;;;20537671;28;20039;-41
2023/09/23 21:41:51;;;;;;;6.30;4.18;;;13.30;99.90;;;;;;20529183;28;20189;-42
2023/09/23 21:51:52;;;;;;;6.70;4.00;;;13.20;99.90;;;;;;20532776;28;20177;-42
2023/09/23 22:01:52;;;;;;;6.18;4.28;;;13.00;99.90;;;;;;20555387;28;20556;-41
2023/09/23 22:11:53;;;;;;;10.18;4.07;;;13.00;99.90;;;;;;20546026;28;20047;-42
2023/09/23 22:21:54;;;;;;;7.80;3.58;;;13.00;99.90;;;;;;20542164;28;20349;-42
2023/09/23 22:31:54;;;;;;;10.17;4.53;;;12.90;99.90;;;;;;20543144;28;20124;-42
2023/09/23 22:41:55;;;;;;;8.98;3.72;;;12.90;99.90;;;;;;20539691;28;20749;-42
2023/09/23 22:51:55;;;;;;;6.18;3.45;;;13.00;99.90;;;;;;20523778;28;20045;-42
2023/09/23 23:01:57;;;;;;;6.93;3.40;;;12.90;99.90;;;;;;20527002;28;20043;-41
2023/09/23 23:11:58;;;;;;;7.47;3.55;;;12.80;99.90;;;;;;20529824;28;20051;-42
2023/09/23 23:21:58;;;;;;;6.78;3.67;;;12.70;99.90;;;;;;20516357;28;20042;-42
2023/09/23 23:31:59;;;;;;;8.25;3.30;;;12.80;99.90;;;;;;20513829;28;20453;-42
2023/09/23 23:42:00;;;;;;;7.90;3.47;;;12.80;95.40;;;;;;20521683;28;20130;-42
2023/09/23 23:52:00;;;;;;;8.88;4.35;;;12.80;98.00;;;;;;20515393;28;20035;-42
